sensor_id;sensor_type;location;lat;lon;timestamp;pressure;altitude;pressure_sealevel;temperature;humidity
36828;BME280;22766;48.042;11.192;2023-12-20T00:02:16;95019.66;;;5.80;60.47
36828;BME280;22766;48.042;11.192;2023-12-20T00:04:43;95023.28;;;5.89;58.07
36828;BME280;22766;48.042;11.192;2023-12-20T00:07:10;95024.72;;;6.02;58.46
36828;BME280;22766;48.042;11.192;2023-12-20T00:09:37;95017.16;;;6.01;57.24
36828;BME280;22766;48.042;11.192;2023-12-20T00:12:04;95015.00;;;5.85;59.57
36828;BME280;22766;48.042;11.192;2023-12-20T00:14:31;95017.16;;;6.01;58.58
36828;BME280;22766;48.042;11.192;2023-12-20T00:16:58;95001.56;;;5.93;58.98
36828;BME280;22766;48.042;11.192;2023-12-20T00:19:24;94996.22;;;6.16;57.58
36828;BME280;22766;48.042;11.192;2023-12-20T00:21:51;94995.59;;;6.03;59.78
36828;BME280;22766;48.042;11.192;2023-12-20T00:24:18;94985.59;;;6.21;58.24
36828;BME280;22766;48.042;11.192;2023-12-20T00:26:45;94985.28;;;6.14;59.40
36828;BME280;22766;48.042;11.192;2023-12-20T00:29:11;94979.31;;;6.14;59.20
36828;BME280;22766;48.042;11.192;2023-12-20T00:31:38;94976.47;;;6.28;57.74
36828;BME280;22766;48.042;11.192;2023-12-20T00:34:05;94979.69;;;6.30;58.70
36828;BME280;22766;48.042;11.192;2023-12-20T00:36:32;94988.50;;;6.37;57.55
36828;BME280;22766;48.042;11.192;2023-12-20T00:38:59;94970.91;;;6.23;59.84
36828;BME280;22766;48.042;11.192;2023-12-20T00:41:26;94970.00;;;6.33;58.83
36828;BME280;22766;48.042;11.192;2023-12-20T00:43:52;94967.50;;;6.43;58.28
36828;BME280;22766;48.042;11.192;2023-12-20T00:46:19;94969.13;;;6.23;60.50
36828;BME280;22766;48.042;11.192;2023-12-20T00:48:46;94959.16;;;6.20;60.87
36828;BME280;22766;48.042;11.192;2023-12-20T00:51:13;94958.19;;;6.21;58.81
36828;BME280;22766;48.042;11.192;2023-12-20T00:53:40;94952.56;;;6.27;60.20
36828;BME280;22766;48.042;11.192;2023-12-20T00:56:06;94962.75;;;6.18;60.06
36828;BME280;22766;48.042;11.192;2023-12-20T00:58:34;94970.41;;;6.08;61.13
36828;BME280;22766;48.042;11.192;2023-12-20T01:01:01;94972.16;;;6.28;60.00
36828;BME280;22766;48.042;11.192;2023-12-20T01:03:27;94961.03;;;6.18;60.90
36828;BME280;22766;48.042;11.192;2023-12-20T01:05:54;94953.88;;;6.22;61.37
36828;BME280;22766;48.042;11.192;2023-12-20T01:08:21;94952.44;;;6.08;63.01
36828;BME280;22766;48.042;11.192;2023-12-20T01:10:48;94956.09;;;6.06;61.70
36828;BME280;22766;48.042;11.192;2023-12-20T01:13:14;94953.88;;;6.22;61.42
36828;BME280;22766;48.042;11.192;2023-12-20T01:15:41;94948.06;;;6.20;62.25
36828;BME280;22766;48.042;11.192;2023-12-20T01:18:09;94955.47;;;6.13;62.98
36828;BME280;22766;48.042;11.192;2023-12-20T01:20:35;94955.81;;;6.29;61.67
36828;BME280;22766;48.042;11.192;2023-12-20T01:23:02;94950.56;;;6.31;62.48
36828;BME280;22766;48.042;11.192;2023-12-20T01:25:29;94952.38;;;6.19;63.12
36828;BME280;22766;48.042;11.192;2023-12-20T01:27:59;94949.16;;;6.17;62.61
36828;BME280;22766;48.042;11.192;2023-12-20T01:30:26;94942.84;;;6.31;61.26
36828;BME280;22766;48.042;11.192;2023-12-20T01:32:52;94933.00;;;6.26;62.28
36828;BME280;22766;48.042;11.192;2023-12-20T01:35:20;94931.72;;;6.41;60.89
36828;BME280;22766;48.042;11.192;2023-12-20T01:37:46;94924.75;;;6.53;60.70
36828;BME280;22766;48.042;11.192;2023-12-20T01:40:13;94921.75;;;6.48;62.01
36828;BME280;22766;48.042;11.192;2023-12-20T01:42:41;94919.88;;;6.50;62.02
36828;BME280;22766;48.042;11.192;2023-12-20T01:45:08;94918.59;;;6.35;63.97
36828;BME280;22766;48.042;11.192;2023-12-20T01:47:35;94916.91;;;6.54;63.20
36828;BME280;22766;48.042;11.192;2023-12-20T01:50:03;94895.19;;;6.58;62.72
36828;BME280;22766;48.042;11.192;2023-12-20T01:52:31;94893.59;;;6.67;63.57
36828;BME280;22766;48.042;11.192;2023-12-20T01:55:00;94893.78;;;6.85;63.35
36828;BME280;22766;48.042;11.192;2023-12-20T01:57:30;94887.41;;;6.79;62.90
36828;BME280;22766;48.042;11.192;2023-12-20T01:59:57;94874.28;;;6.73;64.44
36828;BME280;22766;48.042;11.192;2023-12-20T02:02:26;94871.97;;;6.60;66.72
36828;BME280;22766;48.042;11.192;2023-12-20T02:04:54;94866.03;;;6.59;67.81
36828;BME280;22766;48.042;11.192;2023-12-20T02:07:22;94872.97;;;6.69;69.03
36828;BME280;22766;48.042;11.192;2023-12-20T02:09:49;94881.84;;;6.55;70.46
36828;BME280;22766;48.042;11.192;2023-12-20T02:12:16;94867.84;;;6.69;68.02
36828;BME280;22766;48.042;11.192;2023-12-20T02:14:43;94871.34;;;6.77;67.50
36828;BME280;22766;48.042;11.192;2023-12-20T02:17:10;94869.97;;;6.73;69.86
36828;BME280;22766;48.042;11.192;2023-12-20T02:19:37;94877.28;;;6.78;70.51
36828;BME280;22766;48.042;11.192;2023-12-20T02:22:13;94864.47;;;6.78;72.01
36828;BME280;22766;48.042;11.192;2023-12-20T02:24:40;94849.19;;;6.67;72.65
36828;BME280;22766;48.042;11.192;2023-12-20T02:27:07;94854.41;;;6.55;73.02
36828;BME280;22766;48.042;11.192;2023-12-20T02:29:35;94848.97;;;6.39;75.09
36828;BME280;22766;48.042;11.192;2023-12-20T02:32:02;94850.78;;;6.58;74.94
36828;BME280;22766;48.042;11.192;2023-12-20T02:34:29;94837.09;;;6.38;78.47
36828;BME280;22766;48.042;11.192;2023-12-20T02:36:59;94836.69;;;6.33;78.32
36828;BME280;22766;48.042;11.192;2023-12-20T02:39:26;94827.44;;;6.51;78.04
36828;BME280;22766;48.042;11.192;2023-12-20T02:41:53;94828.31;;;6.31;81.05
36828;BME280;22766;48.042;11.192;2023-12-20T02:44:19;94830.34;;;6.37;83.26
36828;BME280;22766;48.042;11.192;2023-12-20T02:46:46;94846.34;;;6.60;83.17
36828;BME280;22766;48.042;11.192;2023-12-20T02:49:13;94849.19;;;6.67;84.72
36828;BME280;22766;48.042;11.192;2023-12-20T02:51:40;94839.97;;;6.45;87.26
36828;BME280;22766;48.042;11.192;2023-12-20T02:54:07;94846.41;;;6.39;90.27
36828;BME280;22766;48.042;11.192;2023-12-20T02:56:33;94839.97;;;6.45;91.14
36828;BME280;22766;48.042;11.192;2023-12-20T02:59:01;94842.91;;;6.40;92.50
36828;BME280;22766;48.042;11.192;2023-12-20T03:01:28;94840.34;;;6.40;93.83
36828;BME280;22766;48.042;11.192;2023-12-20T03:03:55;94833.28;;;6.23;96.08
36828;BME280;22766;48.042;11.192;2023-12-20T03:06:22;94834.91;;;6.24;97.21
36828;BME280;22766;48.042;11.192;2023-12-20T03:08:49;94839.38;;;6.32;97.52
36828;BME280;22766;48.042;11.192;2023-12-20T03:11:15;94837.56;;;6.53;98.95
36828;BME280;22766;48.042;11.192;2023-12-20T03:13:42;94846.91;;;6.73;97.74
36828;BME280;22766;48.042;11.192;2023-12-20T03:16:13;94843.94;;;6.68;100.00
36828;BME280;22766;48.042;11.192;2023-12-20T03:18:40;94846.09;;;6.82;100.00
36828;BME280;22766;48.042;11.192;2023-12-20T03:21:07;94860.81;;;6.80;100.00
36828;BME280;22766;48.042;11.192;2023-12-20T03:23:34;94857.56;;;6.88;100.00
36828;BME280;22766;48.042;11.192;2023-12-20T03:26:07;94869.97;;;6.73;100.00
36828;BME280;22766;48.042;11.192;2023-12-20T03:28:35;94884.66;;;6.61;100.00
36828;BME280;22766;48.042;11.192;2023-12-20T03:31:03;94872.31;;;6.76;100.00
36828;BME280;22766;48.042;11.192;2023-12-20T03:33:30;94875.91;;;6.64;100.00
36828;BME280;22766;48.042;11.192;2023-12-20T03:35:57;94875.84;;;6.45;100.00
36828;BME280;22766;48.042;11.192;2023-12-20T03:38:23;94872.69;;;6.22;100.00
36828;BME280;22766;48.042;11.192;2023-12-20T03:40:51;94871.63;;;6.25;100.00
36828;BME280;22766;48.042;11.192;2023-12-20T03:43:17;94870.78;;;6.24;100.00
36828;BME280;22766;48.042;11.192;2023-12-20T03:45:44;94877.03;;;6.31;100.00
36828;BME280;22766;48.042;11.192;2023-12-20T03:48:11;94884.94;;;6.19;100.00
36828;BME280;22766;48.042;11.192;2023-12-20T03:50:38;94884.75;;;6.11;100.00
36828;BME280;22766;48.042;11.192;2023-12-20T03:53:05;94876.94;;;6.12;100.00
36828;BME280;22766;48.042;11.192;2023-12-20T03:55:32;94878.63;;;6.23;100.00
36828;BME280;22766;48.042;11.192;2023-12-20T03:57:59;94885.81;;;6.08;100.00
36828;BME280;22766;48.042;11.192;2023-12-20T04:00:25;94883.09;;;6.00;100.00
36828;BME280;22766;48.042;11.192;2023-12-20T04:02:52;94891.81;;;5.88;100.00
36828;BME280;22766;48.042;11.192;2023-12-20T04:05:19;94890.28;;;5.86;100.00
36828;BME280;22766;48.042;11.192;2023-12-20T04:07:46;94891.84;;;5.77;100.00
36828;BME280;22766;48.042;11.192;2023-12-20T04:10:14;94901.53;;;5.94;100.00
36828;BME280;22766;48.042;11.192;2023-12-20T04:12:40;94894.09;;;5.91;100.00
36828;BME280;22766;48.042;11.192;2023-12-20T04:15:08;94899.34;;;5.90;100.00
36828;BME280;22766;48.042;11.192;2023-12-20T04:17:36;94897.84;;;5.87;100.00
36828;BME280;22766;48.042;11.192;2023-12-20T04:20:04;94893.53;;;5.88;100.00
36828;BME280;22766;48.042;11.192;2023-12-20T04:22:31;94888.41;;;5.88;100.00
36828;BME280;22766;48.042;11.192;2023-12-20T04:24:58;94891.13;;;5.86;100.00
36828;BME280;22766;48.042;11.192;2023-12-20T04:27:25;94885.34;;;5.94;100.00
36828;BME280;22766;48.042;11.192;2023-12-20T04:29:51;94882.28;;;5.79;100.00
36828;BME280;22766;48.042;11.192;2023-12-20T04:32:18;94890.44;;;5.84;100.00
36828;BME280;22766;48.042;11.192;2023-12-20T04:34:45;94899.72;;;5.85;100.00
36828;BME280;22766;48.042;11.192;2023-12-20T04:37:12;94903.66;;;5.89;100.00
36828;BME280;22766;48.042;11.192;2023-12-20T04:39:39;94902.72;;;5.90;100.00
36828;BME280;22766;48.042;11.192;2023-12-20T04:42:07;94903.28;;;5.94;100.00
36828;BME280;22766;48.042;11.192;2023-12-20T04:44:34;94913.22;;;5.87;100.00
36828;BME280;22766;48.042;11.192;2023-12-20T04:47:01;94914.50;;;5.82;100.00
36828;BME280;22766;48.042;11.192;2023-12-20T04:49:28;94919.88;;;5.79;100.00
36828;BME280;22766;48.042;11.192;2023-12-20T04:51:55;94924.94;;;5.69;100.00
36828;BME280;22766;48.042;11.192;2023-12-20T04:54:23;94919.00;;;5.68;100.00
36828;BME280;22766;48.042;11.192;2023-12-20T04:56:49;94931.88;;;5.57;100.00
36828;BME280;22766;48.042;11.192;2023-12-20T04:59:16;94930.63;;;5.52;100.00
36828;BME280;22766;48.042;11.192;2023-12-20T05:01:43;94928.53;;;5.46;100.00
36828;BME280;22766;48.042;11.192;2023-12-20T05:04:10;94924.88;;;5.39;100.00
36828;BME280;22766;48.042;11.192;2023-12-20T05:06:37;94936.34;;;5.44;100.00
36828;BME280;22766;48.042;11.192;2023-12-20T05:09:04;94935.16;;;5.28;100.00
36828;BME280;22766;48.042;11.192;2023-12-20T05:11:30;94950.78;;;5.45;100.00
36828;BME280;22766;48.042;11.192;2023-12-20T05:13:57;94950.66;;;5.15;100.00
36828;BME280;22766;48.042;11.192;2023-12-20T05:16:24;94961.25;;;5.11;100.00
36828;BME280;22766;48.042;11.192;2023-12-20T05:18:51;94954.38;;;5.22;100.00
36828;BME280;22766;48.042;11.192;2023-12-20T05:21:19;94966.94;;;5.14;100.00
36828;BME280;22766;48.042;11.192;2023-12-20T05:23:45;94964.03;;;5.08;100.00
36828;BME280;22766;48.042;11.192;2023-12-20T05:26:13;94968.03;;;5.01;100.00
36828;BME280;22766;48.042;11.192;2023-12-20T05:28:39;94965.09;;;4.94;100.00
36828;BME280;22766;48.042;11.192;2023-12-20T05:31:06;94970.34;;;4.93;100.00
36828;BME280;22766;48.042;11.192;2023-12-20T05:33:33;94972.59;;;4.86;100.00
36828;BME280;22766;48.042;11.192;2023-12-20T05:36:00;94973.63;;;4.84;100.00
36828;BME280;22766;48.042;11.192;2023-12-20T05:38:27;94978.03;;;4.82;100.00
36828;BME280;22766;48.042;11.192;2023-12-20T05:40:54;94976.09;;;4.74;100.00
36828;BME280;22766;48.042;11.192;2023-12-20T05:43:21;94981.09;;;4.64;100.00
36828;BME280;22766;48.042;11.192;2023-12-20T05:45:47;94991.66;;;4.60;100.00
36828;BME280;22766;48.042;11.192;2023-12-20T05:48:14;94990.38;;;4.65;100.00
36828;BME280;22766;48.042;11.192;2023-12-20T05:50:41;94997.47;;;4.62;100.00
36828;BME280;22766;48.042;11.192;2023-12-20T05:53:09;94996.53;;;4.41;100.00
36828;BME280;22766;48.042;11.192;2023-12-20T05:55:35;94997.47;;;4.40;100.00
36828;BME280;22766;48.042;11.192;2023-12-20T05:58:02;95003.72;;;4.47;100.00
36828;BME280;22766;48.042;11.192;2023-12-20T06:00:29;95007.00;;;4.49;100.00
36828;BME280;22766;48.042;11.192;2023-12-20T06:02:56;95005.84;;;4.42;100.00
36828;BME280;22766;48.042;11.192;2023-12-20T06:05:23;95012.56;;;4.43;100.00
36828;BME280;22766;48.042;11.192;2023-12-20T06:07:50;95011.28;;;4.26;100.00
36828;BME280;22766;48.042;11.192;2023-12-20T06:10:17;95012.34;;;4.35;100.00
36828;BME280;22766;48.042;11.192;2023-12-20T06:12:44;95023.72;;;4.31;100.00
36828;BME280;22766;48.042;11.192;2023-12-20T06:15:14;95026.28;;;4.42;100.00
36828;BME280;22766;48.042;11.192;2023-12-20T06:17:41;95025.34;;;4.32;100.00
36828;BME280;22766;48.042;11.192;2023-12-20T06:20:08;95035.28;;;4.24;100.00
36828;BME280;22766;48.042;11.192;2023-12-20T06:22:35;95038.78;;;4.23;100.00
36828;BME280;22766;48.042;11.192;2023-12-20T06:25:03;95037.66;;;4.27;100.00
36828;BME280;22766;48.042;11.192;2023-12-20T06:27:30;95033.44;;;4.15;100.00
36828;BME280;22766;48.042;11.192;2023-12-20T06:29:59;95043.06;;;4.11;100.00
36828;BME280;22766;48.042;11.192;2023-12-20T06:32:25;95045.03;;;4.08;100.00
36828;BME280;22766;48.042;11.192;2023-12-20T06:34:52;95038.41;;;4.05;100.00
36828;BME280;22766;48.042;11.192;2023-12-20T06:37:19;95051.28;;;4.04;100.00
36828;BME280;22766;48.042;11.192;2023-12-20T06:39:46;95065.00;;;4.03;100.00
36828;BME280;22766;48.042;11.192;2023-12-20T06:42:13;95059.09;;;4.13;100.00
36828;BME280;22766;48.042;11.192;2023-12-20T06:44:40;95059.53;;;4.07;100.00
36828;BME280;22766;48.042;11.192;2023-12-20T06:47:07;95053.31;;;3.88;100.00
36828;BME280;22766;48.042;11.192;2023-12-20T06:49:34;95050.13;;;3.97;100.00
36828;BME280;22766;48.042;11.192;2023-12-20T06:52:01;95061.75;;;4.01;100.00
36828;BME280;22766;48.042;11.192;2023-12-20T06:54:28;95061.78;;;3.88;100.00
36828;BME280;22766;48.042;11.192;2023-12-20T06:56:55;95066.19;;;3.86;100.00
36828;BME280;22766;48.042;11.192;2023-12-20T06:59:22;95066.03;;;3.76;100.00
36828;BME280;22766;48.042;11.192;2023-12-20T07:01:49;95065.78;;;3.68;100.00
36828;BME280;22766;48.042;11.192;2023-12-20T07:04:16;95077.38;;;3.72;100.00
36828;BME280;22766;48.042;11.192;2023-12-20T07:06:48;95084.69;;;3.66;100.00
36828;BME280;22766;48.042;11.192;2023-12-20T07:09:17;95082.97;;;3.66;100.00
36828;BME280;22766;48.042;11.192;2023-12-20T07:11:44;95085.59;;;3.65;100.00
36828;BME280;22766;48.042;11.192;2023-12-20T07:14:11;95093.38;;;3.63;100.00
36828;BME280;22766;48.042;11.192;2023-12-20T07:16:38;95098.28;;;3.66;100.00
36828;BME280;22766;48.042;11.192;2023-12-20T07:19:05;95103.16;;;3.69;100.00
36828;BME280;22766;48.042;11.192;2023-12-20T07:21:32;95100.19;;;3.63;100.00
36828;BME280;22766;48.042;11.192;2023-12-20T07:23:58;95103.56;;;3.63;100.00
36828;BME280;22766;48.042;11.192;2023-12-20T07:26:25;95101.41;;;3.70;100.00
36828;BME280;22766;48.042;11.192;2023-12-20T07:28:52;95115.44;;;3.64;100.00
36828;BME280;22766;48.042;11.192;2023-12-20T07:31:19;95122.47;;;3.61;100.00
36828;BME280;22766;48.042;11.192;2023-12-20T07:33:46;95123.25;;;3.74;100.00
36828;BME280;22766;48.042;11.192;2023-12-20T07:36:13;95120.66;;;3.87;100.00
36828;BME280;22766;48.042;11.192;2023-12-20T07:38:40;95116.84;;;3.92;100.00
36828;BME280;22766;48.042;11.192;2023-12-20T07:41:09;95120.41;;;3.90;100.00
36828;BME280;22766;48.042;11.192;2023-12-20T07:43:36;95108.09;;;3.84;100.00
36828;BME280;22766;48.042;11.192;2023-12-20T07:46:05;95107.91;;;3.98;100.00
36828;BME280;22766;48.042;11.192;2023-12-20T07:48:34;95115.25;;;4.02;100.00
36828;BME280;22766;48.042;11.192;2023-12-20T07:51:02;95125.03;;;3.85;100.00
36828;BME280;22766;48.042;11.192;2023-12-20T07:53:29;95117.66;;;3.69;100.00
36828;BME280;22766;48.042;11.192;2023-12-20T07:55:58;95126.00;;;3.71;100.00
36828;BME280;22766;48.042;11.192;2023-12-20T07:58:25;95127.53;;;3.97;100.00
36828;BME280;22766;48.042;11.192;2023-12-20T08:01:06;95131.72;;;3.98;100.00
36828;BME280;22766;48.042;11.192;2023-12-20T08:03:33;95141.78;;;3.89;100.00
36828;BME280;22766;48.042;11.192;2023-12-20T08:06:00;95128.31;;;3.87;100.00
36828;BME280;22766;48.042;11.192;2023-12-20T08:08:27;95139.06;;;3.79;100.00
36828;BME280;22766;48.042;11.192;2023-12-20T08:10:54;95138.03;;;4.05;100.00
36828;BME280;22766;48.042;11.192;2023-12-20T08:13:20;95130.19;;;3.96;100.00
36828;BME280;22766;48.042;11.192;2023-12-20T08:15:53;95143.03;;;3.83;100.00
36828;BME280;22766;48.042;11.192;2023-12-20T08:18:20;95143.03;;;3.83;100.00
36828;BME280;22766;48.042;11.192;2023-12-20T08:20:47;95140.13;;;3.88;100.00
36828;BME280;22766;48.042;11.192;2023-12-20T08:23:15;95146.25;;;3.74;100.00
36828;BME280;22766;48.042;11.192;2023-12-20T08:25:42;95142.63;;;3.76;100.00
36828;BME280;22766;48.042;11.192;2023-12-20T08:28:08;95145.44;;;3.61;100.00
36828;BME280;22766;48.042;11.192;2023-12-20T08:30:35;95160.56;;;3.64;100.00
36828;BME280;22766;48.042;11.192;2023-12-20T08:33:02;95149.75;;;3.60;100.00
36828;BME280;22766;48.042;11.192;2023-12-20T08:35:29;95138.19;;;3.67;100.00
36828;BME280;22766;48.042;11.192;2023-12-20T08:37:56;95143.31;;;3.91;100.00
36828;BME280;22766;48.042;11.192;2023-12-20T08:40:23;95139.91;;;3.67;100.00
36828;BME280;22766;48.042;11.192;2023-12-20T08:42:50;95139.13;;;3.66;100.00
36828;BME280;22766;48.042;11.192;2023-12-20T08:45:16;95149.69;;;3.86;100.00
36828;BME280;22766;48.042;11.192;2023-12-20T08:47:43;95147.81;;;3.88;100.00
36828;BME280;22766;48.042;11.192;2023-12-20T08:50:12;95144.50;;;3.98;100.00
36828;BME280;22766;48.042;11.192;2023-12-20T08:52:39;95151.53;;;3.84;100.00
36828;BME280;22766;48.042;11.192;2023-12-20T08:55:06;95163.94;;;3.64;100.00
36828;BME280;22766;48.042;11.192;2023-12-20T08:57:33;95157.31;;;3.62;100.00
36828;BME280;22766;48.042;11.192;2023-12-20T09:00:00;95144.94;;;3.68;100.00
36828;BME280;22766;48.042;11.192;2023-12-20T09:02:26;95150.03;;;3.68;100.00
36828;BME280;22766;48.042;11.192;2023-12-20T09:04:53;95142.44;;;3.79;100.00
36828;BME280;22766;48.042;11.192;2023-12-20T09:07:27;95142.69;;;3.88;100.00
36828;BME280;22766;48.042;11.192;2023-12-20T09:09:55;95145.16;;;3.89;100.00
36828;BME280;22766;48.042;11.192;2023-12-20T09:12:22;95143.38;;;4.02;100.00
36828;BME280;22766;48.042;11.192;2023-12-20T09:14:49;95141.56;;;3.92;100.00
36828;BME280;22766;48.042;11.192;2023-12-20T09:17:17;95153.22;;;4.07;100.00
36828;BME280;22766;48.042;11.192;2023-12-20T09:19:45;95152.16;;;3.98;100.00
36828;BME280;22766;48.042;11.192;2023-12-20T09:22:12;95157.28;;;3.98;100.00
36828;BME280;22766;48.042;11.192;2023-12-20T09:24:39;95144.44;;;4.11;100.00
36828;BME280;22766;48.042;11.192;2023-12-20T09:27:06;95145.25;;;4.11;100.00
36828;BME280;22766;48.042;11.192;2023-12-20T09:29:33;95140.69;;;4.27;100.00
36828;BME280;22766;48.042;11.192;2023-12-20T09:31:59;95145.16;;;4.47;100.00
36828;BME280;22766;48.042;11.192;2023-12-20T09:34:26;95141.75;;;4.36;100.00
36828;BME280;22766;48.042;11.192;2023-12-20T09:36:53;95136.16;;;4.31;100.00
36828;BME280;22766;48.042;11.192;2023-12-20T09:39:21;95144.63;;;4.31;100.00
36828;BME280;22766;48.042;11.192;2023-12-20T09:42:02;95151.66;;;4.51;100.00
36828;BME280;22766;48.042;11.192;2023-12-20T09:44:31;95144.97;;;4.61;100.00
36828;BME280;22766;48.042;11.192;2023-12-20T09:47:01;95153.09;;;4.55;100.00
36828;BME280;22766;48.042;11.192;2023-12-20T09:49:29;95137.38;;;4.49;100.00
36828;BME280;22766;48.042;11.192;2023-12-20T09:51:57;95136.91;;;4.55;100.00
36828;BME280;22766;48.042;11.192;2023-12-20T09:54:24;95134.22;;;4.45;100.00
36828;BME280;22766;48.042;11.192;2023-12-20T09:56:51;95137.66;;;4.68;100.00
36828;BME280;22766;48.042;11.192;2023-12-20T09:59:18;95135.03;;;4.46;100.00
36828;BME280;22766;48.042;11.192;2023-12-20T10:01:45;95131.50;;;4.82;100.00
36828;BME280;22766;48.042;11.192;2023-12-20T10:04:13;95123.34;;;4.65;100.00
36828;BME280;22766;48.042;11.192;2023-12-20T10:06:55;95128.81;;;4.72;100.00
36828;BME280;22766;48.042;11.192;2023-12-20T10:09:24;95136.50;;;4.72;100.00
36828;BME280;22766;48.042;11.192;2023-12-20T10:11:54;95133.34;;;4.57;100.00
36828;BME280;22766;48.042;11.192;2023-12-20T10:14:21;95132.84;;;4.52;100.00
36828;BME280;22766;48.042;11.192;2023-12-20T10:16:49;95133.41;;;4.45;100.00
36828;BME280;22766;48.042;11.192;2023-12-20T10:19:17;95136.47;;;4.61;100.00
36828;BME280;22766;48.042;11.192;2023-12-20T10:21:45;95130.28;;;4.52;100.00
36828;BME280;22766;48.042;11.192;2023-12-20T10:24:17;95126.78;;;4.42;100.00
36828;BME280;22766;48.042;11.192;2023-12-20T10:26:44;95124.81;;;4.46;100.00
36828;BME280;22766;48.042;11.192;2023-12-20T10:29:10;95119.16;;;4.53;100.00
36828;BME280;22766;48.042;11.192;2023-12-20T10:31:37;95118.06;;;4.45;100.00
36828;BME280;22766;48.042;11.192;2023-12-20T10:34:09;95111.69;;;4.50;100.00
36828;BME280;22766;48.042;11.192;2023-12-20T10:36:36;95103.44;;;4.58;100.00
36828;BME280;22766;48.042;11.192;2023-12-20T10:39:05;95098.44;;;4.56;100.00
36828;BME280;22766;48.042;11.192;2023-12-20T10:41:35;95102.88;;;4.65;100.00
36828;BME280;22766;48.042;11.192;2023-12-20T10:44:08;95107.72;;;4.46;100.00
36828;BME280;22766;48.042;11.192;2023-12-20T10:46:39;95102.03;;;4.43;100.00
36828;BME280;22766;48.042;11.192;2023-12-20T10:49:06;95106.09;;;4.45;100.00
36828;BME280;22766;48.042;11.192;2023-12-20T10:51:36;95103.81;;;4.64;100.00
36828;BME280;22766;48.042;11.192;2023-12-20T10:54:04;95095.13;;;4.67;100.00
36828;BME280;22766;48.042;11.192;2023-12-20T10:56:32;95095.75;;;4.47;100.00
36828;BME280;22766;48.042;11.192;2023-12-20T10:59:02;95090.44;;;4.61;100.00
36828;BME280;22766;48.042;11.192;2023-12-20T11:01:33;95092.06;;;4.51;100.00
36828;BME280;22766;48.042;11.192;2023-12-20T11:04:02;95087.06;;;4.60;100.00
36828;BME280;22766;48.042;11.192;2023-12-20T11:06:41;95092.31;;;4.59;100.00
36828;BME280;22766;48.042;11.192;2023-12-20T11:12:20;95100.53;;;4.51;100.00
36828;BME280;22766;48.042;11.192;2023-12-20T11:14:53;95089.50;;;4.51;100.00
36828;BME280;22766;48.042;11.192;2023-12-20T11:17:23;95085.22;;;4.51;100.00
36828;BME280;22766;48.042;11.192;2023-12-20T11:22:25;95083.91;;;4.46;100.00
36828;BME280;22766;48.042;11.192;2023-12-20T11:24:58;95087.63;;;4.53;100.00
36828;BME280;22766;48.042;11.192;2023-12-20T11:27:25;95090.91;;;4.66;100.00
36828;BME280;22766;48.042;11.192;2023-12-20T11:29:53;95075.13;;;4.83;100.00
36828;BME280;22766;48.042;11.192;2023-12-20T11:35:01;95077.78;;;4.82;100.00
36828;BME280;22766;48.042;11.192;2023-12-20T11:37:42;95074.88;;;4.75;100.00
36828;BME280;22766;48.042;11.192;2023-12-20T11:40:15;95071.03;;;4.69;100.00
36828;BME280;22766;48.042;11.192;2023-12-20T11:42:45;95064.50;;;4.54;100.00
36828;BME280;22766;48.042;11.192;2023-12-20T11:45:20;95067.56;;;4.59;100.00
36828;BME280;22766;48.042;11.192;2023-12-20T11:47:49;95063.47;;;4.68;100.00
36828;BME280;22766;48.042;11.192;2023-12-20T11:50:18;95068.13;;;4.96;100.00
36828;BME280;22766;48.042;11.192;2023-12-20T11:52:45;95067.56;;;4.93;100.00
36828;BME280;22766;48.042;11.192;2023-12-20T11:55:12;95067.69;;;4.91;100.00
36828;BME280;22766;48.042;11.192;2023-12-20T11:57:39;95073.84;;;5.11;100.00
36828;BME280;22766;48.042;11.192;2023-12-20T12:00:06;95068.00;;;4.98;100.00
36828;BME280;22766;48.042;11.192;2023-12-20T12:02:39;95065.81;;;5.04;100.00
36828;BME280;22766;48.042;11.192;2023-12-20T12:05:12;95061.16;;;4.98;100.00
36828;BME280;22766;48.042;11.192;2023-12-20T12:07:39;95057.47;;;4.80;100.00
36828;BME280;22766;48.042;11.192;2023-12-20T12:10:06;95057.91;;;4.85;100.00
36828;BME280;22766;48.042;11.192;2023-12-20T12:12:34;95053.50;;;4.76;100.00
36828;BME280;22766;48.042;11.192;2023-12-20T12:15:02;95049.78;;;4.80;100.00
36828;BME280;22766;48.042;11.192;2023-12-20T12:17:29;95049.06;;;5.00;100.00
36828;BME280;22766;48.042;11.192;2023-12-20T12:20:03;95043.38;;;4.97;100.00
36828;BME280;22766;48.042;11.192;2023-12-20T12:22:31;95038.22;;;5.19;100.00
36828;BME280;22766;48.042;11.192;2023-12-20T12:25:09;95040.00;;;5.18;100.00
36828;BME280;22766;48.042;11.192;2023-12-20T12:27:39;95042.44;;;5.09;100.00
36828;BME280;22766;48.042;11.192;2023-12-20T12:30:09;95044.28;;;5.18;100.00
36828;BME280;22766;48.042;11.192;2023-12-20T12:32:36;95032.88;;;5.22;100.00
36828;BME280;22766;48.042;11.192;2023-12-20T12:35:04;95038.09;;;5.31;100.00
36828;BME280;22766;48.042;11.192;2023-12-20T12:37:35;95032.41;;;5.28;100.00
36828;BME280;22766;48.042;11.192;2023-12-20T12:40:09;95030.91;;;5.25;100.00
36828;BME280;22766;48.042;11.192;2023-12-20T12:42:39;95026.47;;;5.27;100.00
36828;BME280;22766;48.042;11.192;2023-12-20T12:45:07;95023.88;;;5.38;100.00
36828;BME280;22766;48.042;11.192;2023-12-20T12:47:34;95014.94;;;5.33;100.00
36828;BME280;22766;48.042;11.192;2023-12-20T12:50:01;95006.13;;;5.26;100.00
36828;BME280;22766;48.042;11.192;2023-12-20T12:52:32;95009.66;;;5.45;100.00
36828;BME280;22766;48.042;11.192;2023-12-20T12:54:59;95017.03;;;5.70;100.00
36828;BME280;22766;48.042;11.192;2023-12-20T12:57:26;95018.06;;;5.68;100.00
36828;BME280;22766;48.042;11.192;2023-12-20T12:59:53;95009.28;;;5.82;100.00
36828;BME280;22766;48.042;11.192;2023-12-20T13:02:20;95016.34;;;6.00;100.00
36828;BME280;22766;48.042;11.192;2023-12-20T13:04:47;95008.47;;;5.49;100.00